• Join FlightAware (Why Join?)
  • Login
  • US Flag 
10:07AM EDT


 

Airport Tracker/Info


-or-


 

Live Flight TrackerFlight Track Log ✈ UCA3599 ✈ 07-Sep-2013 ✈ KBGM - KIAD

Flight Track Log - Related Links

Times and Time Zones

All times are in EDT time to prevent confusion due to time zone crossing. See the UCA3599 flight status page for this flight to view local times or setup timezone preferences in your user account.

Time Position Orientation Groundspeed Altitude Reporting Facility
EDT Latitude Longitude Course Direction KTS MPH feet Rate Location/Type
06:16AM 42.1442 -76.0289 189° South 161 185 3,700  Level New York Center
06:17AM 42.0986 -76.0700 214° Southwest 180 207 4,900 1,080 Climbing New York Center
06:18AM 42.0444 -76.1217 215° Southwest 208 239 5,900 960 Climbing New York Center
06:19AM 41.9989 -76.1625 214° Southwest 222 255 6,900 960 Climbing New York Center
06:20AM 41.9508 -76.2089 216° Southwest 227 261 7,900 1,020 Climbing New York Center
06:21AM 41.5101 -76.3098 189° South  Level Estimated
06:21AM 41.8944 -76.2600 214° Southwest 227 261 9,000  Level New York Center
06:22AM 41.8383 -76.2997 208° Southwest 227 261 9,900 900 Climbing New York Center
06:23AM 41.7828 -76.3286 201° Southwest 232 267 10,800 900 Climbing New York Center
06:24AM 41.7231 -76.3625 203° Southwest 240 276 11,700 960 Climbing New York Center
06:25AM 41.6567 -76.3986 202° Southwest 240 276 12,800 1,080 Climbing New York Center
06:26AM 41.5947 -76.4350 204° Southwest 235 270 13,900 900 Climbing New York Center
06:27AM 41.5367 -76.4689 204° Southwest 235 270 14,700 840 Climbing New York Center
06:28AM 41.4811 -76.4975 201° Southwest 235 270 15,600 600 Climbing New York Center
06:29AM 41.4192 -76.5336 204° Southwest 235 270 16,000 180 Climbing New York Center
06:30AM 41.3461 -76.5772 204° Southwest 261 300 16,000  Level New York Center
06:31AM 41.2733 -76.6150 201° Southwest 270 311 16,000  Level New York Center
06:32AM 41.2092 -76.6508 203° Southwest 280 322 16,000  Level New York Center
06:33AM 41.1297 -76.6964 203° Southwest 280 322 16,000  Level New York Center
06:34AM 41.0569 -76.7367 203° Southwest 280 322 16,000  Level New York Center
06:35AM 40.9861 -76.7744 202° Southwest 280 322 16,000  Level New York Center
06:36AM 40.9239 -76.8131 205° Southwest 280 322 16,000  Level New York Center
06:37AM 40.8467 -76.8556 203° Southwest 280 322 16,000  Level New York Center
06:38AM 40.7783 -76.8878 200° South 280 322 16,000  Level New York Center
06:39AM 40.6958 -76.9133 193° South 280 322 16,000  Level New York Center
06:40AM 40.6278 -76.9347 193° South 280 322 16,000  Level New York Center
06:41AM 40.5472 -76.9603 194° South 281 323 16,000  Level New York Center
06:42AM 40.4775 -76.9814 193° South 287 330 16,000  Level New York Center
06:43AM 40.3947 -77.0064 193° South 282 325 16,000 -300 Level New York Center
06:46AM 40.2333 -77.0500 192° South 298 343 15,100 -480 Descending Potomac TRACON
06:47AM 40.1333 -77.0833 194° South 294 338 14,500 -540 Descending Potomac TRACON
06:48AM 40.0667 -77.1000 191° South 292 336 14,100 -480 Descending Potomac TRACON
06:49AM 40.0000 -77.1333 201° Southwest 290 334 13,600 -600 Descending Potomac TRACON
06:50AM 39.9167 -77.1667 197° South 292 336 12,900 -900 Descending Potomac TRACON
06:50AM 39.8333 -77.1833 189° South 297 342 12,000 -1,080 Descending Potomac TRACON
06:51AM 39.7667 -77.2167 201° Southwest 299 344 11,000 -1,320 Descending Potomac TRACON
06:52AM 39.7000 -77.2500 201° Southwest 294 338 9,500 -1,380 Descending Potomac TRACON
06:53AM 39.6167 -77.2833 197° South 283 326 8,400 -840 Descending Potomac TRACON
06:54AM 39.5500 -77.3000 191° South 262 302 8,000 -420 Descending Potomac TRACON
06:55AM 39.4833 -77.3333 201° Southwest 263 303 7,600 -540 Descending Potomac TRACON
06:56AM 39.4167 -77.3500 191° South 268 308 7,100 -780 Descending Potomac TRACON
06:57AM 39.3500 -77.3667 191° South 277 319 6,200 -1,080 Descending Potomac TRACON
06:58AM 39.2833 -77.3667 180° South 271 312 5,100 -1,020 Descending Potomac TRACON
06:59AM 39.2000 -77.3667 180° South 263 303 4,300 -600 Descending Potomac TRACON
07:00AM 39.1333 -77.3500 169° South 252 290 4,000 -240 Descending Potomac TRACON
07:01AM 39.0667 -77.3500 180° South 251 289 3,900 -360 Descending Potomac TRACON
07:02AM 39.0000 -77.3500 180° South 258 297 3,400 -480 Descending Potomac TRACON
07:03AM 38.9333 -77.3500 180° South 256 295 3,000 -300 Descending Potomac TRACON
07:04AM 38.8667 -77.3500 180° South 238 274 2,900 -540 Descending Potomac TRACON
07:05AM 38.8167 -77.3833 207° Southwest 218 251 2,000 -480 Descending Potomac TRACON
07:06AM 38.8333 -77.4333 293° West 175 201 2,000 -360 Level Potomac TRACON
07:07AM 38.8667 -77.4333 360° North 154 177 1,300 -660 Descending Potomac TRACON
07:08AM 38.9167 -77.4333 360° North 123 142 700 -600 Descending Potomac TRACON
07:10AM 38.9333 -77.4500 349° North  Level FlightAware Approximate
07:17AM 38.9474 -77.4599 349° North  Level Estimated
07:18AM 38.9474 -77.4599 349° North  Level Estimated